Time;durP1;ratioP1;P1;durP2;ratioP2;P2;SDS_P1;SDS_P2;PMS_P1;PMS_P2;Temp;Humidity;BMP_temperature;BMP_pressure;BME280_temperature;BME280_humidity;BME280_pressure;Samples;Min_cycle;Max_cycle;Signal;HPM_P1;HPM_P2
2021/08/21 00:02:51;;;;;;;0.47;0.20;;;;;;;17.97;100.00;99896.69;4953549;28;20131;-73
2021/08/21 00:05:54;;;;;;;1.70;0.30;;;;;;;17.89;100.00;99888.03;4952868;28;20057;-73
2021/08/21 00:08:57;;;;;;;5.45;0.20;;;;;;;17.89;100.00;99885.22;4951880;28;20081;-73
2021/08/21 00:12:01;;;;;;;2.20;0.20;;;;;;;17.95;100.00;99873.91;4953104;28;20893;-73
2021/08/21 00:15:07;;;;;;;1.10;0.20;;;;;;;17.94;100.00;99875.97;4954385;28;20144;-73
2021/08/21 00:18:10;;;;;;;0.10;0.10;;;;;;;17.55;100.00;99869.88;4952971;28;20555;-73
2021/08/21 00:21:14;;;;;;;0.32;0.25;;;;;;;17.45;100.00;99871.47;4953306;28;20046;-73
2021/08/21 00:24:17;;;;;;;0.10;0.00;;;;;;;17.77;100.00;99869.72;4951991;28;20049;-73
2021/08/21 00:27:19;;;;;;;1.00;0.22;;;;;;;17.69;100.00;99865.94;4953688;28;20052;-73
2021/08/21 00:30:24;;;;;;;3.17;1.63;;;;;;;17.82;100.00;99866.06;4953368;28;20596;-73
2021/08/21 00:33:27;;;;;;;0.65;0.30;;;;;;;17.90;100.00;99861.41;4951791;28;20473;-73
2021/08/21 00:36:30;;;;;;;1.30;0.30;;;;;;;17.92;100.00;99861.63;4951802;28;20045;-73
2021/08/21 00:39:33;;;;;;;0.10;0.10;;;;;;;17.28;100.00;99871.56;4952682;28;20053;-73
2021/08/21 00:42:36;;;;;;;0.20;0.15;;;;;;;17.32;100.00;99872.06;4952859;28;20601;-74
2021/08/21 00:45:39;;;;;;;0.80;0.30;;;;;;;17.03;100.00;99877.59;4952640;28;20160;-74
2021/08/21 00:48:42;;;;;;;1.10;0.35;;;;;;;17.10;100.00;99880.63;4953332;28;20050;-74
2021/08/21 00:51:45;;;;;;;0.20;0.20;;;;;;;17.38;100.00;99877.66;4973096;28;20523;-74
2021/08/21 00:54:49;;;;;;;0.45;0.28;;;;;;;17.62;100.00;99866.50;4994830;28;20074;-73
2021/08/21 00:57:53;;;;;;;5.88;0.68;;;;;;;17.80;100.00;99860.19;4994488;28;20526;-74
2021/08/21 01:00:57;;;;;;;0.45;0.20;;;;;;;16.85;100.00;99886.66;4994524;28;20100;-74
2021/08/21 01:04:00;;;;;;;0.10;0.00;;;;;;;16.63;100.00;99893.13;4980137;28;20096;-75
2021/08/21 01:07:07;;;;;;;0.65;0.30;;;;;;;16.43;100.00;99888.56;4993646;28;20567;-76
2021/08/21 01:10:14;;;;;;;0.63;0.30;;;;;;;16.35;100.00;99893.16;4993806;28;20065;-76
2021/08/21 01:13:17;;;;;;;0.73;0.10;;;;;;;16.36;100.00;99897.50;4994057;28;20057;-76
2021/08/21 01:16:21;;;;;;;1.25;0.38;;;;;;;16.51;100.00;99898.00;4993487;28;20061;-76
2021/08/21 01:19:25;;;;;;;1.70;0.28;;;;;;;17.64;100.00;99892.09;4993822;28;20053;-76
2021/08/21 01:22:28;;;;;;;0.85;0.22;;;;;;;17.38;100.00;99886.09;4993676;28;20144;-76
2021/08/21 01:25:32;;;;;;;1.10;0.22;;;;;;;17.53;100.00;99875.28;4994074;28;20579;-74
2021/08/21 01:28:35;;;;;;;1.10;0.30;;;;;;;18.46;100.00;99849.56;4994268;28;20093;-74
2021/08/21 01:31:39;;;;;;;1.38;0.22;;;;;;;18.75;100.00;99834.63;4994140;28;20049;-74
2021/08/21 01:34:41;;;;;;;2.92;0.45;;;;;;;18.83;100.00;99833.47;4994002;28;20139;-74
2021/08/21 01:37:44;;;;;;;0.98;0.10;;;;;;;17.41;100.00;99846.38;4993136;28;20460;-74
2021/08/21 01:40:51;;;;;;;0.68;0.20;;;;;;;17.12;100.00;99866.03;4994225;28;20404;-75
2021/08/21 01:43:54;;;;;;;0.22;0.20;;;;;;;17.17;100.00;99856.81;4994034;28;20045;-76
2021/08/21 01:46:57;;;;;;;2.30;0.22;;;;;;;17.18;100.00;99849.88;4993742;28;20408;-76
2021/08/21 01:50:03;;;;;;;0.20;0.10;;;;;;;17.14;100.00;99843.78;4994108;28;20057;-74
2021/08/21 01:53:17;;;;;;;0.55;0.10;;;;;;;16.92;100.00;99846.69;4993566;28;20232;-75
2021/08/21 01:56:20;;;;;;;4.03;0.15;;;;;;;16.76;100.00;99851.16;4993369;28;20416;-76
2021/08/21 01:59:30;;;;;;;0.20;0.03;;;;;;;16.96;100.00;99847.97;4994105;28;20177;-76
2021/08/21 02:02:33;;;;;;;0.60;0.20;;;;;;;16.93;100.00;99842.63;5004260;28;20053;-74
2021/08/21 02:05:35;;;;;;;1.65;0.30;;;;;;;16.95;100.00;99840.03;5003636;28;20491;-73
2021/08/21 02:08:39;;;;;;;0.68;0.10;;;;;;;17.11;100.00;99827.91;4992588;28;20046;-75
2021/08/21 02:11:42;;;;;;;0.40;0.20;;;;;;;17.18;100.00;99827.38;4992957;28;20097;-73
2021/08/21 02:14:46;;;;;;;4.82;0.55;;;;;;;17.54;100.00;99820.50;4993168;28;20104;-74
2021/08/21 02:17:48;;;;;;;0.22;0.13;;;;;;;17.89;100.00;99809.13;4993300;28;20069;-74
2021/08/21 02:20:51;;;;;;;0.73;0.35;;;;;;;17.34;100.00;99809.59;4993182;28;20075;-73
2021/08/21 02:23:55;;;;;;;2.50;0.30;;;;;;;17.13;100.00;99805.66;4993330;28;20137;-74
2021/08/21 02:27:01;;;;;;;0.30;0.20;;;;;;;17.05;100.00;99805.44;4993024;28;20053;-75
2021/08/21 02:30:05;;;;;;;1.25;0.20;;;;;;;16.98;100.00;99822.13;4993132;28;20104;-75
2021/08/21 02:33:08;;;;;;;0.30;0.17;;;;;;;17.66;100.00;99818.31;4993515;28;20144;-75
2021/08/21 02:36:12;;;;;;;2.05;0.35;;;;;;;17.20;100.00;99800.22;4992939;28;20152;-75
2021/08/21 02:39:16;;;;;;;0.85;0.10;;;;;;;17.28;100.00;99806.06;4992565;28;20056;-75
2021/08/21 02:42:20;;;;;;;0.30;0.10;;;;;;;17.65;100.00;99789.38;4993036;28;20116;-73
2021/08/21 02:45:24;;;;;;;2.47;0.43;;;;;;;18.04;100.00;99781.31;4992037;28;20057;-73
2021/08/21 02:48:27;;;;;;;1.10;0.40;;;;;;;17.41;100.00;99786.53;4994750;28;20064;-74
2021/08/21 02:51:30;;;;;;;0.25;0.08;;;;;;;16.89;100.00;99805.56;4996426;28;20570;-74
2021/08/21 02:54:32;;;;;;;2.63;0.20;;;;;;;16.98;100.00;99805.25;4996874;28;20420;-74
2021/08/21 02:57:35;;;;;;;0.40;0.10;;;;;;;16.93;100.00;99808.84;4996568;28;20389;-74
2021/08/21 03:00:39;;;;;;;2.83;0.85;;;;;;;17.07;100.00;99802.88;4996506;28;20068;-74
2021/08/21 03:03:42;;;;;;;0.30;0.30;;;;;;;17.13;100.00;99794.41;4996562;28;20641;-73
2021/08/21 03:06:45;;;;;;;0.85;0.45;;;;;;;17.40;100.00;99785.75;4996342;28;20053;-73
2021/08/21 03:09:48;;;;;;;0.25;0.13;;;;;;;17.86;100.00;99776.41;4996776;28;20148;-74
2021/08/21 03:12:50;;;;;;;0.50;0.35;;;;;;;17.34;100.00;99775.81;4996445;28;20049;-73
2021/08/21 03:15:53;;;;;;;0.65;0.10;;;;;;;17.40;100.00;99779.34;4996348;28;20089;-74
2021/08/21 03:18:56;;;;;;;1.33;0.17;;;;;;;17.80;100.00;99775.69;4996305;28;20185;-74
2021/08/21 03:21:59;;;;;;;0.50;0.50;;;;;;;16.99;100.00;99778.63;4995737;28;20052;-75
2021/08/21 03:25:02;;;;;;;2.80;0.38;;;;;;;17.27;100.00;99782.00;4996181;28;20100;-75
2021/08/21 03:28:05;;;;;;;1.02;0.47;;;;;;;17.38;100.00;99781.94;4996171;28;20476;-74
2021/08/21 03:31:08;;;;;;;0.88;0.43;;;;;;;17.39;100.00;99780.63;4996146;28;20392;-73
2021/08/21 03:34:11;;;;;;;1.95;0.50;;;;;;;17.44;100.00;99788.28;4996134;28;20054;-73
2021/08/21 03:37:14;;;;;;;1.48;0.17;;;;;;;17.29;100.00;99793.50;4995912;28;20692;-73
2021/08/21 03:40:17;;;;;;;0.20;0.10;;;;;;;17.39;100.00;99789.06;4996391;28;20053;-74
2021/08/21 03:43:20;;;;;;;7.47;0.13;;;;;;;17.44;100.00;99780.59;4996232;28;20723;-75
2021/08/21 03:46:22;;;;;;;0.85;0.20;;;;;;;17.52;100.00;99783.63;4995889;28;20053;-73
2021/08/21 03:49:25;;;;;;;0.35;0.10;;;;;;;17.59;100.00;99777.41;4996119;28;20057;-73
2021/08/21 03:52:28;;;;;;;1.00;0.17;;;;;;;17.66;100.00;99774.03;4995236;28;20088;-73
2021/08/21 03:55:31;;;;;;;2.60;0.40;;;;;;;17.58;100.00;99772.31;4995352;28;20053;-73
2021/08/21 03:58:34;;;;;;;1.17;0.10;;;;;;;17.37;100.00;99781.16;4995504;28;20551;-73
2021/08/21 04:01:37;;;;;;;1.65;0.20;;;;;;;17.56;100.00;99775.66;4995236;28;20052;-73
2021/08/21 04:04:40;;;;;;;2.92;0.45;;;;;;;17.55;100.00;99768.50;4995242;28;20049;-74
2021/08/21 04:07:43;;;;;;;0.90;0.25;;;;;;;17.60;100.00;99770.50;4995477;28;20105;-74
2021/08/21 04:10:46;;;;;;;4.75;0.20;;;;;;;17.61;100.00;99766.38;4995344;28;20426;-74
2021/08/21 04:13:49;;;;;;;1.48;0.10;;;;;;;17.69;100.00;99773.00;4995458;28;20042;-74
2021/08/21 04:16:52;;;;;;;0.95;0.30;;;;;;;17.59;100.00;99773.84;4995291;28;20161;-75
2021/08/21 04:19:55;;;;;;;0.35;0.28;;;;;;;17.54;100.00;99778.25;4995180;28;20073;-75
2021/08/21 04:22:58;;;;;;;1.35;0.10;;;;;;;17.52;100.00;99789.25;4994990;28;20147;-76
2021/08/21 04:26:01;;;;;;;0.52;0.28;;;;;;;17.56;100.00;99780.53;4994460;28;20528;-76
2021/08/21 04:29:03;;;;;;;0.75;0.10;;;;;;;17.19;100.00;99783.88;4994225;28;20096;-76
2021/08/21 04:32:06;;;;;;;4.55;0.17;;;;;;;17.06;100.00;99790.09;4994034;28;20507;-73
2021/08/21 04:35:10;;;;;;;0.75;0.00;;;;;;;17.02;100.00;99788.84;4994852;28;20121;-74
2021/08/21 04:38:13;;;;;;;0.20;0.10;;;;;;;17.09;100.00;99777.03;4994562;28;20045;-74
2021/08/21 04:41:16;;;;;;;0.45;0.30;;;;;;;17.11;100.00;99774.44;4994827;28;20460;-73
2021/08/21 04:44:19;;;;;;;0.73;0.10;;;;;;;17.16;100.00;99765.22;4994813;28;20381;-73
2021/08/21 04:47:22;;;;;;;3.15;0.20;;;;;;;17.24;100.00;99766.16;4994631;28;20078;-73
2021/08/21 04:50:25;;;;;;;2.03;0.20;;;;;;;17.32;100.00;99761.50;4994175;28;20886;-74
2021/08/21 04:53:28;;;;;;;0.70;0.20;;;;;;;17.20;100.00;99760.06;4994382;28;20125;-73
2021/08/21 04:56:30;;;;;;;0.60;0.22;;;;;;;17.33;100.00;99757.41;4994237;28;20061;-74
2021/08/21 04:59:33;;;;;;;1.75;0.20;;;;;;;17.29;100.00;99757.69;4994812;28;20057;-73
2021/08/21 05:02:36;;;;;;;0.35;0.15;;;;;;;17.49;100.00;99748.06;4994694;28;20113;-75
2021/08/21 05:05:39;;;;;;;0.20;0.10;;;;;;;17.61;100.00;99735.41;4994433;28;20057;-74
2021/08/21 05:08:42;;;;;;;0.82;0.28;;;;;;;17.57;100.00;99743.38;4994332;28;20053;-74
2021/08/21 05:11:45;;;;;;;0.32;0.10;;;;;;;17.54;100.00;99740.88;4994250;28;20057;-74
2021/08/21 05:14:48;;;;;;;0.60;0.10;;;;;;;17.48;100.00;99746.50;4994390;28;20100;-74
2021/08/21 05:17:53;;;;;;;0.20;0.17;;;;;;;17.45;100.00;99747.59;4994445;28;20133;-75
2021/08/21 05:21:05;;;;;;;0.43;0.10;;;;;;;17.28;100.00;99753.34;4994447;28;20064;-75
2021/08/21 05:24:08;;;;;;;0.40;0.30;;;;;;;17.30;100.00;99758.47;4994466;28;20083;-76
2021/08/21 05:27:11;;;;;;;2.70;0.45;;;;;;;17.14;100.00;99762.16;4993786;28;20081;-76
2021/08/21 05:30:14;;;;;;;0.60;0.20;;;;;;;17.23;100.00;99768.25;4994121;28;20054;-76
2021/08/21 05:33:19;;;;;;;0.50;0.10;;;;;;;17.08;100.00;99756.59;4994049;28;20654;-76
2021/08/21 05:36:21;;;;;;;0.80;0.57;;;;;;;17.03;100.00;99762.22;4994042;28;20049;-76
2021/08/21 05:39:25;;;;;;;13.40;0.70;;;;;;;17.08;100.00;99764.25;4993696;28;20437;-76
2021/08/21 05:42:28;;;;;;;0.40;0.25;;;;;;;17.06;100.00;99767.59;4993679;28;20072;-76
2021/08/21 05:45:31;;;;;;;1.08;0.52;;;;;;;17.04;100.00;99775.03;4993655;28;20536;-76
2021/08/21 05:48:34;;;;;;;1.73;0.30;;;;;;;17.03;100.00;99774.25;4994291;28;20136;-76
2021/08/21 05:51:37;;;;;;;4.07;0.80;;;;;;;17.04;100.00;99773.00;4993461;28;20053;-76
2021/08/21 05:54:40;;;;;;;1.90;0.30;;;;;;;17.21;100.00;99770.03;5004506;28;20060;-76
2021/08/21 05:57:43;;;;;;;2.30;0.30;;;;;;;17.36;100.00;99781.69;4993704;28;20084;-76
2021/08/21 06:00:45;;;;;;;2.28;0.45;;;;;;;17.55;100.00;99776.94;4993571;28;20116;-76
2021/08/21 06:03:48;;;;;;;0.80;0.25;;;;;;;17.61;100.00;99783.28;4993314;28;20125;-74
2021/08/21 06:06:51;;;;;;;6.57;0.68;;;;;;;17.73;100.00;99781.91;4993393;28;20053;-74
2021/08/21 06:09:54;;;;;;;3.28;0.50;;;;;;;17.77;100.00;99779.56;4993763;28;20052;-74
2021/08/21 06:12:57;;;;;;;4.20;0.73;;;;;;;17.94;100.00;99782.97;4992757;28;20405;-74
2021/08/21 06:15:59;;;;;;;1.55;0.55;;;;;;;16.29;100.00;99808.09;4993460;28;20100;-74
2021/08/21 06:19:02;;;;;;;3.50;0.80;;;;;;;16.12;100.00;99815.81;4993377;28;20089;-74
2021/08/21 06:22:05;;;;;;;6.80;0.63;;;;;;;15.85;100.00;99816.63;4993054;28;20061;-74
2021/08/21 06:25:09;;;;;;;1.42;0.10;;;;;;;15.79;100.00;99821.47;4993404;28;20046;-76
2021/08/21 06:28:12;;;;;;;3.50;0.77;;;;;;;17.46;100.00;99808.22;4993068;28;20191;-76
2021/08/21 06:31:15;;;;;;;2.75;0.60;;;;;;;17.81;100.00;99791.31;4993229;28;20057;-77
2021/08/21 06:34:18;;;;;;;3.50;0.93;;;;;;;17.83;100.00;99785.13;4993545;28;20049;-76
2021/08/21 06:37:20;;;;;;;2.38;0.28;;;;;;;17.95;100.00;99770.41;4992872;28;20134;-76
2021/08/21 06:40:23;;;;;;;5.97;0.63;;;;;;;17.99;100.00;99770.88;4993048;28;20049;-74
2021/08/21 06:43:26;;;;;;;1.73;0.52;;;;;;;18.07;100.00;99766.19;4993016;28;20578;-74
2021/08/21 06:46:29;;;;;;;1.38;0.40;;;;;;;18.27;100.00;99776.22;4992524;28;20053;-74
2021/08/21 06:49:32;;;;;;;3.42;0.55;;;;;;;18.30;100.00;99775.13;5003284;28;20057;-74
2021/08/21 06:52:35;;;;;;;2.40;0.40;;;;;;;18.27;100.00;99779.03;4992415;28;20120;-74
2021/08/21 06:55:38;;;;;;;3.08;0.28;;;;;;;18.43;100.00;99760.38;4992500;28;20120;-74
2021/08/21 06:58:41;;;;;;;3.28;0.40;;;;;;;18.60;100.00;99769.41;4992734;28;20129;-74
2021/08/21 07:01:44;;;;;;;1.85;0.28;;;;;;;18.51;100.00;99767.75;4992893;28;20121;-74
2021/08/21 07:04:47;;;;;;;1.70;0.77;;;;;;;18.61;100.00;99770.94;4992798;28;20049;-74
2021/08/21 07:07:49;;;;;;;4.88;1.23;;;;;;;16.62;100.00;99799.56;4991701;28;20065;-74
2021/08/21 07:10:52;;;;;;;1.70;0.52;;;;;;;16.37;100.00;99799.91;4992828;28;20459;-74
2021/08/21 07:13:55;;;;;;;1.90;0.57;;;;;;;16.28;100.00;99806.56;4993064;28;20405;-74
2021/08/21 07:16:58;;;;;;;5.28;0.85;;;;;;;16.42;100.00;99811.09;4992876;28;20104;-73
2021/08/21 07:20:01;;;;;;;7.82;1.08;;;;;;;16.38;100.00;99807.03;4992789;28;20057;-74
2021/08/21 07:23:04;;;;;;;4.13;0.50;;;;;;;16.44;100.00;99807.78;4992094;28;20053;-74
2021/08/21 07:26:07;;;;;;;10.95;1.30;;;;;;;16.46;100.00;99808.78;5002513;28;20112;-74
2021/08/21 07:29:10;;;;;;;7.97;1.77;;;;;;;16.52;100.00;99806.75;4992242;28;20065;-74
2021/08/21 07:32:13;;;;;;;8.88;1.45;;;;;;;16.60;100.00;99821.81;4992275;28;20177;-74
2021/08/21 07:35:15;;;;;;;2.65;1.15;;;;;;;16.59;100.00;99820.28;4993749;28;20112;-74
2021/08/21 07:38:18;;;;;;;3.67;1.65;;;;;;;16.60;100.00;99816.19;4992654;28;20049;-74
2021/08/21 07:41:21;;;;;;;12.05;1.23;;;;;;;16.61;100.00;99826.13;4993659;28;20045;-73
2021/08/21 07:44:24;;;;;;;6.15;1.70;;;;;;;16.57;100.00;99814.41;4996170;28;20392;-74
2021/08/21 07:47:27;;;;;;;5.65;1.00;;;;;;;16.55;100.00;99816.19;4976349;28;20190;-74
2021/08/21 07:50:30;;;;;;;6.53;1.75;;;;;;;16.52;100.00;99815.19;4976235;28;20134;-74
2021/08/21 07:53:33;;;;;;;7.35;1.65;;;;;;;16.52;100.00;99811.63;4976749;28;20121;-74
2021/08/21 07:56:35;;;;;;;5.22;1.40;;;;;;;16.64;100.00;99810.28;4976209;28;20512;-74
2021/08/21 07:59:39;;;;;;;10.48;2.38;;;;;;;16.66;100.00;99810.53;4976015;28;20046;-74
2021/08/21 08:02:45;;;;;;;3.97;0.88;;;;;;;16.76;100.00;99811.00;4976372;28;20050;-76
2021/08/21 08:05:47;;;;;;;4.03;1.45;;;;;;;16.85;100.00;99813.50;4976181;28;20460;-76
2021/08/21 08:08:50;;;;;;;8.02;1.25;;;;;;;16.94;100.00;99811.13;4975854;28;20045;-77
2021/08/21 08:11:53;;;;;;;3.08;1.10;;;;;;;17.04;100.00;99803.16;4975590;28;20054;-75
2021/08/21 08:14:56;;;;;;;2.67;0.98;;;;;;;17.07;100.00;99813.38;4975801;28;20105;-76
2021/08/21 08:17:59;;;;;;;5.68;1.10;;;;;;;17.05;100.00;99821.56;4976221;28;20106;-75
2021/08/21 08:21:02;;;;;;;6.40;1.63;;;;;;;17.00;100.00;99817.50;4976160;28;20072;-74
2021/08/21 08:24:06;;;;;;;5.30;0.95;;;;;;;16.94;100.00;99818.81;4976070;28;20110;-74
2021/08/21 08:27:09;;;;;;;2.95;0.80;;;;;;;16.92;100.00;99819.34;4975452;28;20109;-73
2021/08/21 08:30:13;;;;;;;3.53;0.85;;;;;;;16.93;100.00;99820.13;4975769;28;20105;-74
2021/08/21 08:33:16;;;;;;;7.90;1.50;;;;;;;17.11;100.00;99819.47;4976079;28;20072;-74
2021/08/21 08:36:19;;;;;;;5.57;0.82;;;;;;;17.10;100.00;99813.09;4975626;28;20058;-74
2021/08/21 08:39:21;;;;;;;3.78;0.70;;;;;;;17.26;100.00;99800.22;4974742;28;20134;-74
2021/08/21 08:42:25;;;;;;;4.88;1.77;;;;;;;17.43;100.00;99806.47;4975508;28;20465;-74
2021/08/21 08:45:28;;;;;;;1.98;0.65;;;;;;;17.54;100.00;99800.78;4975007;28;20050;-76
2021/08/21 08:48:34;;;;;;;3.67;1.10;;;;;;;17.59;100.00;99808.41;4975430;28;20512;-75
2021/08/21 08:51:37;;;;;;;2.03;0.77;;;;;;;17.63;100.00;99802.50;4975144;28;20053;-73
2021/08/21 08:54:40;;;;;;;3.90;1.27;;;;;;;17.53;100.00;99809.72;4975324;28;20049;-76
2021/08/21 08:57:47;;;;;;;3.17;0.85;;;;;;;17.54;100.00;99806.41;4975326;28;20069;-76
2021/08/21 09:00:50;;;;;;;5.15;0.80;;;;;;;17.41;100.00;99801.34;4975244;28;20049;-76
2021/08/21 09:04:23;;;;;;;4.57;1.23;;;;;;;17.29;100.00;99801.97;4975633;28;20521;-76
2021/08/21 09:07:41;;;;;;;3.95;1.27;;;;;;;17.32;100.00;99806.56;4975168;28;20428;-76
2021/08/21 09:10:45;;;;;;;1.77;0.65;;;;;;;17.34;100.00;99809.59;4975076;28;20069;-76
2021/08/21 09:13:49;;;;;;;6.28;1.27;;;;;;;17.37;100.00;99797.28;4975038;28;20057;-76
2021/08/21 09:17:05;;;;;;;2.05;0.65;;;;;;;17.64;100.00;99798.38;4975261;28;20068;-76
2021/08/21 09:20:09;;;;;;;3.33;1.02;;;;;;;17.96;100.00;99788.84;4974808;28;20054;-76
2021/08/21 09:23:19;;;;;;;4.63;1.08;;;;;;;18.26;100.00;99793.66;4985377;28;20105;-76
2021/08/21 09:26:27;;;;;;;1.92;0.55;;;;;;;18.29;100.00;99798.22;4974653;28;20058;-76
2021/08/21 09:29:30;;;;;;;4.30;1.20;;;;;;;18.10;100.00;99796.09;4974813;28;20050;-77
2021/08/21 09:32:33;;;;;;;2.40;1.02;;;;;;;17.95;100.00;99803.47;4974745;28;20489;-77
2021/08/21 09:35:36;;;;;;;2.65;0.82;;;;;;;17.93;100.00;99798.34;4975149;28;20050;-74
2021/08/21 09:38:41;;;;;;;2.10;0.43;;;;;;;17.89;100.00;99799.91;4974864;28;20053;-74
2021/08/21 09:41:55;;;;;;;1.30;0.10;;;;;;;17.87;100.00;99799.69;4974308;28;20053;-74
2021/08/21 09:45:08;;;;;;;4.38;0.82;;;;;;;17.80;100.00;99801.03;4973653;28;20101;-75
2021/08/21 09:48:12;;;;;;;0.77;0.20;;;;;;;17.68;100.00;99812.94;4973972;28;20139;-75
2021/08/21 09:51:39;;;;;;;3.50;0.55;;;;;;;17.64;100.00;99810.41;4973616;28;20054;-74
2021/08/21 09:55:03;;;;;;;3.38;0.43;;;;;;;17.53;100.00;99810.50;4972780;28;20478;-75
2021/08/21 09:58:20;;;;;;;0.20;0.10;;;;;;;17.40;100.00;99813.13;4973568;28;20505;-75
2021/08/21 10:01:24;;;;;;;2.45;0.30;;;;;;;17.29;100.00;99807.59;4974443;28;20105;-75
2021/08/21 10:04:28;;;;;;;0.60;0.25;;;;;;;17.11;100.00;99811.03;4974199;28;20054;-75
2021/08/21 10:07:37;;;;;;;0.20;0.10;;;;;;;17.05;100.00;99815.94;4974523;28;20045;-75
2021/08/21 10:10:49;;;;;;;0.65;0.22;;;;;;;17.10;100.00;99823.59;4974618;28;20516;-76
2021/08/21 10:13:53;;;;;;;0.57;0.28;;;;;;;17.14;100.00;99818.44;4974167;28;20109;-75
2021/08/21 10:16:56;;;;;;;2.90;0.73;;;;;;;17.14;100.00;99819.22;4974354;28;20062;-75
2021/08/21 10:19:59;;;;;;;0.20;0.13;;;;;;;17.27;100.00;99818.59;4974185;28;20438;-75
2021/08/21 10:23:14;;;;;;;1.60;0.13;;;;;;;17.43;100.00;99817.72;4944044;28;20045;-76
2021/08/21 10:26:25;;;;;;;0.30;0.10;;;;;;;17.55;100.00;99819.19;4938863;28;21096;-76
2021/08/21 10:29:28;;;;;;;0.95;0.20;;;;;;;17.69;100.00;99822.91;4930994;28;20054;-76
2021/08/21 10:32:37;;;;;;;4.03;0.80;;;;;;;17.71;100.00;99820.34;4937210;28;20070;-77
2021/08/21 10:35:46;;;;;;;3.65;0.20;;;;;;;17.68;100.00;99810.88;4934087;28;20050;-76
2021/08/21 10:38:48;;;;;;;0.88;0.20;;;;;;;17.67;100.00;99805.78;4941322;28;20045;-74
2021/08/21 10:41:55;;;;;;;1.38;0.15;;;;;;;17.63;100.00;99811.69;4960550;28;20116;-74
2021/08/21 10:45:00;;;;;;;1.45;0.10;;;;;;;17.61;100.00;99805.03;4993554;28;20393;-75
2021/08/21 10:48:03;;;;;;;6.22;0.43;;;;;;;17.68;100.00;99802.44;4993184;28;20061;-75
2021/08/21 10:51:41;;;;;;;0.47;0.10;;;;;;;17.79;100.00;99799.53;4993189;28;20053;-74
2021/08/21 10:54:45;;;;;;;0.57;0.00;;;;;;;18.02;100.00;99803.63;4993167;28;20057;-74
2021/08/21 10:58:04;;;;;;;0.98;0.30;;;;;;;18.22;100.00;99801.63;4993297;28;20053;-76
2021/08/21 11:01:06;;;;;;;2.35;0.57;;;;;;;18.23;100.00;99797.53;4993070;28;20053;-76
2021/08/21 11:04:35;;;;;;;1.75;0.20;;;;;;;18.37;100.00;99797.09;4993517;28;20456;-76
2021/08/21 11:07:43;;;;;;;0.70;0.10;;;;;;;18.47;100.00;99795.47;4992960;28;20114;-74
2021/08/21 11:10:47;;;;;;;0.90;0.10;;;;;;;18.46;100.00;99796.00;4983954;28;20896;-75
2021/08/21 11:14:05;;;;;;;0.25;0.08;;;;;;;18.48;100.00;99788.53;4960155;28;20152;-74
2021/08/21 11:17:11;;;;;;;0.10;0.00;;;;;;;18.54;100.00;99783.56;4994235;28;20425;-76
2021/08/21 11:20:31;;;;;;;0.00;0.00;;;;;;;18.50;100.00;99779.53;4994341;28;20108;-76
2021/08/21 11:23:51;;;;;;;0.15;0.00;;;;;;;18.38;100.00;99780.94;4994289;28;20520;-74
2021/08/21 11:27:22;;;;;;;2.83;0.10;;;;;;;18.25;100.00;99787.25;4993924;28;20073;-77
2021/08/21 11:30:26;;;;;;;;;;;;;;;18.06;100.00;99784.38;4992626;28;20166;-74
2021/08/21 11:33:29;;;;;;;0.20;0.08;;;;;;;17.97;100.00;99792.44;4976068;28;19944;-74
2021/08/21 11:36:32;;;;;;;2.30;0.00;;;;;;;17.89;100.00;99791.47;4976306;28;20704;-73
2021/08/21 11:39:35;;;;;;;0.55;0.20;;;;;;;17.88;100.00;99790.72;4976901;28;20126;-73
2021/08/21 11:43:07;;;;;;;0.65;0.22;;;;;;;17.84;100.00;99787.44;4977125;28;20045;-75
2021/08/21 11:46:11;;;;;;;0.00;0.00;;;;;;;17.80;100.00;99789.75;4993218;28;20049;-76
2021/08/21 11:49:14;;;;;;;0.00;0.00;;;;;;;17.75;100.00;99782.16;4994821;28;20100;-74
2021/08/21 11:52:18;;;;;;;0.10;0.10;;;;;;;17.57;100.00;99782.81;4994719;28;20452;-74
2021/08/21 11:55:22;;;;;;;0.32;0.08;;;;;;;17.44;100.00;99786.22;4991527;28;21856;-75
2021/08/21 11:58:43;;;;;;;1.50;0.00;;;;;;;17.37;100.00;99786.03;4994231;28;20109;-76
2021/08/21 12:01:59;;;;;;;1.20;0.38;;;;;;;17.34;100.00;99787.09;4995178;28;20046;-75
2021/08/21 12:05:02;;;;;;;0.10;0.00;;;;;;;17.32;100.00;99790.44;4994961;28;20096;-75
2021/08/21 12:08:25;;;;;;;1.23;0.10;;;;;;;17.34;100.00;99787.84;4994886;28;20061;-75
2021/08/21 12:11:28;;;;;;;0.30;0.00;;;;;;;17.34;100.00;99787.09;4992814;28;20476;-76
2021/08/21 12:14:35;;;;;;;0.25;0.05;;;;;;;17.31;100.00;99785.31;4993248;28;20052;-75
2021/08/21 12:17:38;;;;;;;1.30;0.10;;;;;;;17.33;100.00;99779.91;4993955;28;20049;-76
2021/08/21 12:20:41;;;;;;;0.63;0.10;;;;;;;17.34;100.00;99789.91;4993605;28;20061;-77
2021/08/21 12:23:46;;;;;;;3.53;0.50;;;;;;;17.42;100.00;99774.72;4994720;28;20041;-76
2021/08/21 12:26:50;;;;;;;1.20;0.30;;;;;;;17.54;100.00;99789.50;4991863;28;20049;-76
2021/08/21 12:30:06;;;;;;;3.45;0.30;;;;;;;17.79;100.00;99785.44;4994237;28;20393;-76
2021/08/21 12:33:11;;;;;;;0.52;0.15;;;;;;;18.07;100.00;99782.31;4993454;28;20185;-76
2021/08/21 12:36:19;;;;;;;0.63;0.20;;;;;;;18.35;100.00;99773.53;4993906;28;20105;-77
2021/08/21 12:39:28;;;;;;;2.47;0.32;;;;;;;18.66;100.00;99767.28;4994004;28;20045;-74
2021/08/21 12:42:31;;;;;;;2.45;0.32;;;;;;;18.82;100.00;99769.09;4992323;28;20442;-75
2021/08/21 12:45:44;;;;;;;6.47;1.63;;;;;;;18.82;100.00;99774.72;4992481;28;20109;-78
2021/08/21 12:48:48;;;;;;;5.93;0.93;;;;;;;18.82;100.00;99757.81;4994359;28;20046;-77
2021/08/21 12:51:55;;;;;;;6.35;1.30;;;;;;;18.84;100.00;99755.97;4975618;28;20057;-75
2021/08/21 12:54:59;;;;;;;8.45;1.75;;;;;;;19.02;100.00;99754.44;4975416;28;20548;-72
2021/08/21 12:58:07;;;;;;;7.70;0.88;;;;;;;19.07;100.00;99745.13;4975240;28;20050;-74
2021/08/21 13:01:10;;;;;;;3.13;0.43;;;;;;;19.08;100.00;99748.72;4975923;28;20577;-75
2021/08/21 13:04:13;;;;;;;0.85;0.20;;;;;;;19.08;100.00;99743.81;4991534;28;20584;-76
2021/08/21 13:07:16;;;;;;;0.63;0.20;;;;;;;18.93;100.00;99752.00;4991402;28;20076;-77
2021/08/21 13:10:21;;;;;;;1.85;0.55;;;;;;;18.86;100.00;99753.38;4991933;28;20408;-76
2021/08/21 13:13:24;;;;;;;0.98;0.52;;;;;;;18.87;100.00;99749.28;5001935;28;20073;-74
2021/08/21 13:16:27;;;;;;;2.47;0.35;;;;;;;18.91;100.00;99751.78;4991964;28;20081;-75
2021/08/21 13:19:30;;;;;;;1.20;0.15;;;;;;;18.93;100.00;99741.47;4992856;28;20191;-75
2021/08/21 13:22:34;;;;;;;0.98;0.25;;;;;;;18.93;100.00;99744.31;4992923;28;20046;-75
2021/08/21 13:25:38;;;;;;;5.38;1.05;;;;;;;19.04;100.00;99746.19;4993104;28;20056;-74
2021/08/21 13:28:41;;;;;;;2.10;0.30;;;;;;;19.13;100.00;99736.56;4992342;28;20126;-74
2021/08/21 13:31:44;;;;;;;0.85;0.35;;;;;;;19.21;100.00;99743.13;4991179;28;20177;-75
2021/08/21 13:34:47;;;;;;;0.85;0.20;;;;;;;19.22;100.00;99751.03;4991396;28;20056;-75
2021/08/21 13:37:50;;;;;;;0.70;0.20;;;;;;;19.00;100.00;99740.09;5006211;28;20192;-75
2021/08/21 13:40:53;;;;;;;2.65;0.30;;;;;;;18.85;100.00;99745.47;5013670;28;20048;-76
2021/08/21 13:43:56;;;;;;;1.65;0.47;;;;;;;18.63;100.00;99742.94;5013331;28;20511;-73
2021/08/21 13:47:00;;;;;;;1.55;0.10;;;;;;;18.44;100.00;99739.34;4994807;28;20527;-74
2021/08/21 13:50:04;;;;;;;1.23;0.43;;;;;;;18.22;100.00;99739.59;4993416;28;20053;-74
2021/08/21 13:53:06;;;;;;;1.55;0.80;;;;;;;18.11;100.00;99746.91;4991636;28;20134;-77
2021/08/21 13:56:09;;;;;;;2.67;0.20;;;;;;;17.99;100.00;99747.56;4991827;28;20072;-76
2021/08/21 13:59:12;;;;;;;1.45;0.13;;;;;;;17.86;100.00;99741.81;4993548;28;20040;-75
2021/08/21 14:02:17;;;;;;;0.40;0.20;;;;;;;17.77;100.00;99742.16;4993461;28;20077;-77
2021/08/21 14:05:20;;;;;;;0.28;0.10;;;;;;;17.65;100.00;99749.97;4992387;28;20089;-77
2021/08/21 14:08:23;;;;;;;1.23;0.20;;;;;;;17.56;100.00;99739.06;4993375;28;20054;-75
2021/08/21 14:11:26;;;;;;;1.05;0.30;;;;;;;17.60;100.00;99735.94;4991912;28;20076;-74
2021/08/21 14:14:29;;;;;;;6.57;0.10;;;;;;;17.70;100.00;99737.88;4993481;28;20062;-75
2021/08/21 14:17:32;;;;;;;6.40;0.55;;;;;;;17.74;100.00;99740.41;4993197;28;20057;-72
2021/08/21 14:20:39;;;;;;;2.55;0.32;;;;;;;17.81;100.00;99726.50;4993126;28;20049;-74